Wetterdaten: Woche 02.01.17 - 08.01.17 (KW1)
Datum Zeit Temp. A. Feuchte A. Luftdruck Regen Wind Richtung Taupunkt Windchill Windben
02.01.2017 00:00 -6,9 C 85 % 1020,9 hPa 0,0 l/m 0,0 km/h N -9,0 C -6,9 C 0,8 km/h
02.01.2017 01:00 -6,9 C 85 % 1020,7 hPa 0,0 l/m 0,0 km/h N -9,0 C -6,9 C 0,0 km/h
02.01.2017 02:00 -6,8 C 85 % 1020,5 hPa 0,0 l/m 0,0 km/h N -9,0 C -6,8 C 0,8 km/h
02.01.2017 03:00 -7,0 C 85 % 1020,4 hPa 0,0 l/m 0,0 km/h N -9,1 C -7,0 C 1,2 km/h
02.01.2017 04:00 -7,3 C 85 % 1020,0 hPa 0,0 l/m 0,0 km/h N -9,4 C -7,3 C 0,4 km/h
02.01.2017 05:00 -7,5 C 85 % 1019,8 hPa 0,0 l/m 0,0 km/h N -9,6 C -7,5 C 0,0 km/h
02.01.2017 06:00 -7,9 C 85 % 1019,6 hPa 0,0 l/m 0,0 km/h N -10,0 C -7,9 C 1,6 km/h
02.01.2017 07:00 -8,1 C 85 % 1019,6 hPa 0,0 l/m 0,0 km/h N -10,1 C -8,1 C 0,4 km/h
02.01.2017 08:00 -8,3 C 85 % 1019,6 hPa 0,0 l/m 0,1 km/h N -10,4 C -8,3 C 2,4 km/h
02.01.2017 09:00 -7,6 C 84 % 1019,3 hPa 0,0 l/m 0,1 km/h N -9,8 C -7,6 C 2,0 km/h
02.01.2017 10:00 -6,5 C 84 % 1019,1 hPa 0,0 l/m 0,0 km/h N -8,8 C -6,5 C 1,6 km/h
02.01.2017 11:00 -5,2 C 84 % 1018,3 hPa 0,0 l/m 0,1 km/h N -7,4 C -5,2 C 3,6 km/h
02.01.2017 12:00 -3,4 C 84 % 1017,3 hPa 0,0 l/m 0,3 km/h N -5,7 C -3,4 C 4,8 km/h
02.01.2017 13:00 -2,1 C 84 % 1016,9 hPa 0,0 l/m 0,5 km/h N -4,4 C -2,1 C 6,4 km/h
02.01.2017 14:00 0,9 C 81 % 1016,6 hPa 0,0 l/m 5,2 km/h N -2,0 C -0,4 C 19,7 km/h
02.01.2017 15:00 3,0 C 68 % 1016,6 hPa 0,0 l/m 12,1 km/h N -2,4 C -1,6 C 34,6 km/h
02.01.2017 16:00 1,5 C 72 % 1017,4 hPa 0,0 l/m 12,6 km/h N -3,0 C -3,5 C 33,8 km/h
02.01.2017 17:00 1,6 C 73 % 1018,2 hPa 0,0 l/m 9,5 km/h N -2,8 C -1,3 C 30,2 km/h
02.01.2017 18:00 1,3 C 77 % 1018,5 hPa 0,0 l/m 11,2 km/h N -2,3 C -3,0 C 27,8 km/h
02.01.2017 19:00 0,8 C 81 % 1019,4 hPa 0,0 l/m 12,1 km/h N -2,1 C -4,1 C 29,4 km/h
02.01.2017 20:00 0,9 C 82 % 1020,0 hPa 0,0 l/m 11,7 km/h N -1,9 C -3,7 C 28,6 km/h
02.01.2017 21:00 1,0 C 82 % 1020,5 hPa 0,0 l/m 8,6 km/h N -1,7 C -1,1 C 21,7 km/h
02.01.2017 22:00 1,1 C 82 % 1020,9 hPa 0,0 l/m 8,2 km/h N -1,7 C -0,7 C 23,3 km/h
02.01.2017 23:00 1,2 C 80 % 1021,1 hPa 0,0 l/m 6,1 km/h N -1,9 C 1,1 C 18,1 km/h
03.01.2017 00:00 1,3 C 78 % 1021,1 hPa 0,0 l/m 6,6 km/h N -2,1 C 1,0 C 20,5 km/h
03.01.2017 01:00 1,3 C 78 % 1021,1 hPa 0,0 l/m 9,9 km/h N -2,2 C -1,9 C 22,9 km/h
03.01.2017 02:00 1,3 C 77 % 1021,5 hPa 0,0 l/m 8,7 km/h N -2,3 C -0,9 C 21,7 km/h
03.01.2017 03:00 1,1 C 77 % 1021,8 hPa 0,0 l/m 8,1 km/h N -2,5 C -0,5 C 21,3 km/h
03.01.2017 04:00 0,5 C 78 % 1021,7 hPa 0,0 l/m 12,0 km/h N -2,9 C -4,2 C 28,2 km/h
03.01.2017 05:00 0,3 C 78 % 1022,3 hPa 0,0 l/m 11,0 km/h N -3,2 C -4,0 C 24,9 km/h
03.01.2017 06:00 0,5 C 75 % 1022,5 hPa 0,0 l/m 11,1 km/h N -3,4 C -3,8 C 27,4 km/h
03.01.2017 07:00 0,6 C 69 % 1022,6 hPa 0,0 l/m 12,0 km/h N -4,4 C -4,2 C 30,6 km/h
03.01.2017 08:00 0,7 C 68 % 1022,5 hPa 0,0 l/m 12,9 km/h N -4,7 C -4,9 C 34,2 km/h
03.01.2017 09:00 1,3 C 65 % 1022,8 hPa 0,0 l/m 13,7 km/h N -4,6 C -4,5 C 36,2 km/h
03.01.2017 10:00 1,6 C 65 % 1023,5 hPa 0,0 l/m 14,0 km/h N -4,3 C -4,4 C 37,8 km/h
03.01.2017 11:00 1,6 C 65 % 1023,1 hPa 0,0 l/m 13,2 km/h N -4,3 C -3,9 C 42,6 km/h
03.01.2017 12:00 2,5 C 62 % 1022,9 hPa 0,0 l/m 14,0 km/h N -4,1 C -3,4 C 44,3 km/h
03.01.2017 13:00 2,7 C 61 % 1022,3 hPa 0,0 l/m 15,1 km/h N -4,2 C -3,8 C 43,4 km/h
03.01.2017 14:00 2,6 C 60 % 1022,0 hPa 0,0 l/m 16,2 km/h N -4,4 C -4,4 C 41,5 km/h
03.01.2017 15:00 2,0 C 61 % 1021,9 hPa 0,0 l/m 13,2 km/h N -4,8 C -3,4 C 38,2 km/h
03.01.2017 16:00 1,4 C 63 % 1021,7 hPa 0,0 l/m 14,6 km/h N -4,8 C -5,1 C 36,6 km/h
03.01.2017 17:00 1,3 C 63 % 1021,7 hPa 0,0 l/m 10,4 km/h N -4,9 C -2,2 C 29,4 km/h
03.01.2017 18:00 1,4 C 63 % 1021,2 hPa 0,0 l/m 8,6 km/h N -4,9 C -0,7 C 29,4 km/h
03.01.2017 19:00 1,4 C 63 % 1021,1 hPa 0,0 l/m 4,2 km/h N -4,9 C 1,4 C 20,9 km/h
03.01.2017 20:00 1,4 C 64 % 1020,5 hPa 0,0 l/m 3,1 km/h N -4,8 C 1,4 C 17,3 km/h
03.01.2017 21:00 1,6 C 63 % 1019,6 hPa 0,0 l/m 3,3 km/h N -4,7 C 1,6 C 18,1 km/h
03.01.2017 22:00 1,9 C 60 % 1018,7 hPa 0,0 l/m 5,1 km/h N -5,0 C 1,9 C 23,7 km/h
03.01.2017 23:00 2,5 C 56 % 1017,5 hPa 0,0 l/m 5,7 km/h N -5,3 C 2,5 C 24,9 km/h
04.01.2017 00:00 3,1 C 55 % 1015,7 hPa 0,0 l/m 7,9 km/h N -5,1 C 1,6 C 33,0 km/h
04.01.2017 01:00 3,8 C 52 % 1014,0 hPa 0,0 l/m 10,0 km/h N -5,2 C 0,8 C 38,2 km/h
04.01.2017 02:00 4,2 C 49 % 1013,0 hPa 0,0 l/m 14,1 km/h N -5,5 C -1,4 C 40,2 km/h
04.01.2017 03:00 4,4 C 47 % 1011,8 hPa 0,0 l/m 18,2 km/h N -6,1 C -3,1 C 51,9 km/h
04.01.2017 04:00 3,9 C 55 % 1011,0 hPa 0,0 l/m 19,3 km/h N -4,3 C -4,3 C 51,1 km/h
04.01.2017 05:00 3,5 C 61 % 1009,7 hPa 0,0 l/m 16,5 km/h N -3,2 C -3,4 C 57,6 km/h
04.01.2017 06:00 3,3 C 61 % 1008,7 hPa 0,0 l/m 12,3 km/h N -3,4 C -1,3 C 42,3 km/h
04.01.2017 07:00 4,1 C 55 % 1007,9 hPa 0,0 l/m 12,0 km/h N -4,0 C -0,2 C 38,6 km/h
04.01.2017 08:00 3,8 C 62 % 1007,8 hPa 0,0 l/m 13,7 km/h N -2,9 C -1,6 C 47,1 km/h
04.01.2017 09:00 3,4 C 69 % 1007,5 hPa 0,0 l/m 13,2 km/h N -1,7 C -1,8 C 42,3 km/h
04.01.2017 10:00 3,9 C 68 % 1006,7 hPa 0,0 l/m 14,6 km/h N -1,5 C -2,0 C 42,6 km/h
04.01.2017 11:00 4,9 C 64 % 1005,5 hPa 0,0 l/m 14,3 km/h N -1,3 C -0,6 C 47,5 km/h
04.01.2017 12:00 5,3 C 63 % 1004,8 hPa 0,0 l/m 20,0 km/h N -1,1 C -2,7 C 55,1 km/h
04.01.2017 13:00 4,8 C 65 % 1004,5 hPa 0,0 l/m 25,6 km/h N -1,2 C -5,4 C 62,4 km/h
04.01.2017 14:00 4,3 C 69 % 1004,9 hPa 0,0 l/m 19,2 km/h N -0,9 C -3,7 C 53,1 km/h
04.01.2017 15:00 4,0 C 71 % 1005,6 hPa 0,0 l/m 14,8 km/h N -0,8 C -2,0 C 39,0 km/h
04.01.2017 16:00 3,8 C 70 % 1005,8 hPa 0,0 l/m 13,7 km/h N -1,3 C -1,6 C 41,8 km/h
04.01.2017 17:00 3,8 C 69 % 1005,4 hPa 0,0 l/m 13,4 km/h N -1,5 C -1,5 C 39,4 km/h
04.01.2017 18:00 3,4 C 71 % 1005,4 hPa 0,0 l/m 10,4 km/h N -1,3 C 0,0 C 29,0 km/h
04.01.2017 19:00 3,3 C 71 % 1005,4 hPa 0,0 l/m 15,9 km/h N -1,5 C -3,4 C 43,0 km/h
04.01.2017 20:00 3,4 C 68 % 1005,3 hPa 0,0 l/m 18,1 km/h N -1,9 C -4,2 C 51,1 km/h
04.01.2017 21:00 3,2 C 71 % 1006,1 hPa 0,0 l/m 13,2 km/h N -1,7 C -1,7 C 41,0 km/h
04.01.2017 22:00 3,0 C 72 % 1007,2 hPa 0,0 l/m 7,6 km/h N -1,5 C 1,9 C 26,6 km/h
04.01.2017 23:00 2,6 C 75 % 1006,7 hPa 0,0 l/m 14,9 km/h N -1,4 C -3,6 C 37,8 km/h
05.01.2017 00:00 2,1 C 79 % 1007,1 hPa 0,0 l/m 15,4 km/h N -1,2 C -4,6 C 37,4 km/h
05.01.2017 01:00 1,7 C 75 % 1008,2 hPa 0,0 l/m 8,5 km/h N -2,3 C -0,2 C 24,9 km/h
05.01.2017 02:00 1,1 C 72 % 1009,0 hPa 0,0 l/m 7,1 km/h N -3,4 C 0,2 C 23,3 km/h
05.01.2017 03:00 0,9 C 68 % 1009,2 hPa 0,0 l/m 6,8 km/h N -4,4 C 0,4 C 20,5 km/h
05.01.2017 04:00 1,0 C 68 % 1009,9 hPa 0,0 l/m 6,4 km/h N -4,3 C 0,8 C 20,5 km/h
05.01.2017 05:00 1,0 C 67 % 1010,5 hPa 0,0 l/m 10,6 km/h N -4,4 C -2,9 C 26,2 km/h
05.01.2017 06:00 0,7 C 68 % 1011,1 hPa 0,0 l/m 9,4 km/h N -4,6 C -2,0 C 26,6 km/h
05.01.2017 07:00 0,4 C 70 % 1012,5 hPa 0,0 l/m 11,0 km/h N -4,4 C -3,7 C 28,2 km/h
05.01.2017 08:00 -0,0 C 73 % 1013,8 hPa 0,0 l/m 9,9 km/h N -4,3 C -3,4 C 26,6 km/h
05.01.2017 09:00 -0,2 C 72 % 1015,5 hPa 0,0 l/m 10,0 km/h N -4,7 C -3,6 C 28,2 km/h
05.01.2017 10:00 -0,3 C 67 % 1016,9 hPa 0,0 l/m 12,6 km/h N -5,7 C -5,8 C 33,8 km/h
05.01.2017 11:00 -0,3 C 65 % 1017,2 hPa 0,0 l/m 12,1 km/h N -6,1 C -5,4 C 29,0 km/h
05.01.2017 12:00 -0,3 C 61 % 1017,9 hPa 0,0 l/m 12,5 km/h N -7,0 C -5,7 C 35,0 km/h
05.01.2017 13:00 -0,6 C 60 % 1018,6 hPa 0,0 l/m 13,9 km/h N -7,4 C -6,9 C 33,4 km/h
05.01.2017 14:00 -1,4 C 57 % 1020,0 hPa 0,0 l/m 14,5 km/h N -8,7 C -8,3 C 35,4 km/h
05.01.2017 15:00 -1,9 C 54 % 1021,8 hPa 0,0 l/m 12,6 km/h N -9,8 C -7,5 C 32,2 km/h
05.01.2017 16:00 -2,1 C 58 % 1022,9 hPa 0,0 l/m 10,5 km/h N -9,3 C -6,2 C 28,6 km/h
05.01.2017 17:00 -2,7 C 61 % 1023,8 hPa 0,0 l/m 12,5 km/h N -9,2 C -8,5 C 29,8 km/h
05.01.2017 18:00 -3,1 C 61 % 1025,3 hPa 0,0 l/m 11,4 km/h N -9,6 C -8,0 C 29,4 km/h
05.01.2017 19:00 -3,1 C 61 % 1026,3 hPa 0,0 l/m 8,1 km/h N -9,7 C -5,0 C 23,3 km/h
05.01.2017 20:00 -3,6 C 62 % 1026,9 hPa 0,0 l/m 10,9 km/h N -9,8 C -8,1 C 30,2 km/h
05.01.2017 21:00 -4,1 C 63 % 1028,0 hPa 0,0 l/m 10,1 km/h N -10,1 C -8,0 C 29,0 km/h
05.01.2017 22:00 -4,8 C 63 % 1028,7 hPa 0,0 l/m 10,6 km/h N -10,7 C -9,3 C 29,0 km/h
05.01.2017 23:00 -5,3 C 64 % 1029,3 hPa 0,0 l/m 10,0 km/h N -11,1 C -9,2 C 28,6 km/h
06.01.2017 00:00 -5,6 C 63 % 1029,9 hPa 0,0 l/m 11,2 km/h N -11,5 C -10,7 C 27,8 km/h
06.01.2017 01:00 -5,8 C 67 % 1030,5 hPa 0,0 l/m 10,4 km/h N -11,0 C -10,2 C 29,0 km/h
06.01.2017 02:00 -6,0 C 67 % 1031,2 hPa 0,0 l/m 9,3 km/h N -11,0 C -9,3 C 30,2 km/h
06.01.2017 03:00 -6,3 C 67 % 1031,8 hPa 0,0 l/m 9,6 km/h N -11,4 C -9,9 C 28,6 km/h
06.01.2017 04:00 -6,1 C 66 % 1032,4 hPa 0,0 l/m 10,2 km/h N -11,5 C -10,4 C 30,2 km/h
06.01.2017 05:00 -5,9 C 66 % 1032,7 hPa 0,0 l/m 11,0 km/h N -11,2 C -10,9 C 28,2 km/h
06.01.2017 06:00 -6,0 C 67 % 1033,2 hPa 0,0 l/m 10,6 km/h N -11,0 C -10,6 C 28,2 km/h
06.01.2017 07:00 -5,9 C 66 % 1033,5 hPa 0,0 l/m 11,9 km/h N -11,3 C -11,8 C 34,2 km/h
06.01.2017 08:00 -6,2 C 65 % 1034,2 hPa 0,0 l/m 12,0 km/h N -11,7 C -12,1 C 32,6 km/h
06.01.2017 09:00 -6,0 C 64 % 1034,5 hPa 0,0 l/m 14,1 km/h N -11,7 C -13,5 C 34,2 km/h
06.01.2017 10:00 -5,8 C 63 % 1034,7 hPa 0,0 l/m 14,1 km/h N -11,8 C -13,4 C 34,6 km/h
06.01.2017 11:00 -5,3 C 61 % 1034,5 hPa 0,0 l/m 14,4 km/h N -11,7 C -13,0 C 33,4 km/h
06.01.2017 12:00 -5,1 C 58 % 1034,1 hPa 0,0 l/m 13,1 km/h N -12,0 C -11,7 C 33,4 km/h
06.01.2017 13:00 -5,0 C 58 % 1034,0 hPa 0,0 l/m 12,2 km/h N -11,9 C -10,9 C 29,8 km/h
06.01.2017 14:00 -5,5 C 66 % 1034,3 hPa 0,0 l/m 13,4 km/h N -10,8 C -12,3 C 35,4 km/h
06.01.2017 15:00 -5,6 C 63 % 1034,8 hPa 0,0 l/m 13,2 km/h N -11,5 C -12,4 C 31,4 km/h
06.01.2017 16:00 -5,8 C 57 % 1035,4 hPa 0,0 l/m 10,8 km/h N -12,9 C -10,5 C 30,6 km/h
06.01.2017 17:00 -6,2 C 66 % 1035,7 hPa 0,0 l/m 11,3 km/h N -11,5 C -11,4 C 29,0 km/h
06.01.2017 18:00 -6,8 C 67 % 1036,5 hPa 0,0 l/m 10,2 km/h N -11,8 C -11,1 C 26,5 km/h
06.01.2017 19:00 -6,8 C 66 % 1036,6 hPa 0,0 l/m 10,1 km/h N -12,1 C -11,0 C 27,0 km/h
06.01.2017 20:00 -6,9 C 66 % 1036,7 hPa 0,0 l/m 8,7 km/h N -12,2 C -9,6 C 24,1 km/h
06.01.2017 21:00 -7,0 C 64 % 1036,7 hPa 0,0 l/m 9,9 km/h N -12,5 C -10,7 C 26,6 km/h
06.01.2017 22:00 -7,2 C 64 % 1036,8 hPa 0,0 l/m 12,7 km/h N -12,8 C -13,9 C 34,2 km/h
06.01.2017 23:00 -7,3 C 65 % 1037,1 hPa 0,0 l/m 10,3 km/h N -12,7 C -11,7 C 27,0 km/h
07.01.2017 00:00 -7,5 C 67 % 1036,9 hPa 0,0 l/m 8,8 km/h N -12,5 C -10,2 C 29,4 km/h
07.01.2017 01:00 -8,1 C 67 % 1036,4 hPa 0,0 l/m 10,1 km/h N -13,2 C -12,5 C 31,4 km/h
07.01.2017 02:00 -8,4 C 67 % 1036,3 hPa 0,0 l/m 9,0 km/h N -13,4 C -11,6 C 25,3 km/h
07.01.2017 03:00 -8,2 C 70 % 1035,8 hPa 0,0 l/m 6,7 km/h N -12,8 C -8,8 C 20,9 km/h
07.01.2017 04:00 -8,1 C 68 % 1036,0 hPa 0,0 l/m 7,1 km/h N -13,0 C -9,2 C 24,1 km/h
07.01.2017 05:00 -7,9 C 67 % 1036,3 hPa 0,0 l/m 7,3 km/h N -12,9 C -9,1 C 23,3 km/h
07.01.2017 06:00 -8,1 C 66 % 1036,6 hPa 0,0 l/m 7,4 km/h N -13,2 C -9,7 C 22,9 km/h
07.01.2017 07:00 -8,4 C 67 % 1036,8 hPa 0,0 l/m 8,3 km/h N -13,4 C -10,7 C 25,8 km/h
07.01.2017 08:00 -8,8 C 69 % 1036,7 hPa 0,0 l/m 6,2 km/h N -13,4 C -9,2 C 20,1 km/h
07.01.2017 09:00 -8,5 C 69 % 1036,7 hPa 0,0 l/m 9,6 km/h N -13,2 C -12,3 C 24,9 km/h
07.01.2017 10:00 -7,7 C 63 % 1036,4 hPa 0,0 l/m 10,2 km/h N -13,5 C -12,1 C 27,8 km/h
07.01.2017 11:00 -7,0 C 60 % 1035,6 hPa 0,0 l/m 9,9 km/h N -13,4 C -11,0 C 24,9 km/h
07.01.2017 12:00 -6,3 C 57 % 1034,2 hPa 0,0 l/m 11,2 km/h N -13,5 C -11,5 C 26,1 km/h
07.01.2017 13:00 -5,8 C 55 % 1033,2 hPa 0,0 l/m 12,8 km/h N -13,4 C -12,3 C 27,8 km/h
07.01.2017 14:00 -5,2 C 50 % 1032,8 hPa 0,0 l/m 9,4 km/h N -13,9 C -8,6 C 27,0 km/h
07.01.2017 15:00 -5,6 C 54 % 1032,7 hPa 0,0 l/m 8,7 km/h N -13,4 C -8,2 C 25,3 km/h
07.01.2017 16:00 -6,2 C 59 % 1032,7 hPa 0,0 l/m 5,5 km/h N -13,0 C -7,0 C 18,5 km/h
07.01.2017 17:00 -6,8 C 62 % 1032,6 hPa 0,0 l/m 2,9 km/h N -12,9 C -6,8 C 13,7 km/h
07.01.2017 18:00 -7,2 C 64 % 1032,3 hPa 0,0 l/m 1,2 km/h N -12,8 C -7,2 C 8,0 km/h
07.01.2017 19:00 -6,8 C 63 % 1031,7 hPa 0,0 l/m 2,7 km/h N -12,6 C -6,8 C 11,7 km/h
07.01.2017 20:00 -6,2 C 66 % 1031,2 hPa 0,0 l/m 6,7 km/h N -11,6 C -7,1 C 19,7 km/h
07.01.2017 21:00 -6,3 C 75 % 1030,8 hPa 0,0 l/m 6,7 km/h N -10,0 C -6,8 C 18,1 km/h
07.01.2017 22:00 -6,4 C 78 % 1029,8 hPa 0,0 l/m 7,3 km/h N -9,6 C -7,5 C 21,7 km/h
07.01.2017 23:00 -6,4 C 80 % 1029,0 hPa 0,0 l/m 7,6 km/h N -9,3 C -7,8 C 20,9 km/h
08.01.2017 00:00 -6,3 C 80 % 1027,9 hPa 0,0 l/m 8,6 km/h N -9,2 C -8,9 C 23,7 km/h
08.01.2017 01:00 -5,9 C 79 % 1027,3 hPa 0,0 l/m 7,7 km/h N -9,0 C -7,6 C 21,7 km/h
08.01.2017 02:00 -5,5 C 80 % 1026,7 hPa 0,0 l/m 3,2 km/h N -8,4 C -5,5 C 11,7 km/h
08.01.2017 03:00 -5,2 C 81 % 1026,4 hPa 0,0 l/m 3,7 km/h N -7,9 C -5,2 C 12,5 km/h
08.01.2017 04:00 -5,1 C 83 % 1026,2 hPa 0,0 l/m 3,5 km/h N -7,6 C -5,1 C 12,1 km/h
08.01.2017 05:00 -5,1 C 84 % 1026,3 hPa 0,0 l/m 3,3 km/h N -7,4 C -5,1 C 11,3 km/h
08.01.2017 06:00 -5,7 C 84 % 1026,5 hPa 0,0 l/m 0,2 km/h N -8,0 C -5,7 C 2,4 km/h
08.01.2017 07:00 -6,7 C 84 % 1027,0 hPa 0,0 l/m 1,0 km/h N -9,0 C -6,7 C 3,6 km/h
08.01.2017 08:00 -5,6 C 84 % 1027,5 hPa 0,0 l/m 3,7 km/h N -7,9 C -5,6 C 9,7 km/h
08.01.2017 09:00 -5,4 C 84 % 1027,8 hPa 0,0 l/m 2,8 km/h N -7,7 C -5,4 C 8,9 km/h
08.01.2017 10:00 -4,9 C 84 % 1028,1 hPa 0,0 l/m 1,4 km/h N -7,2 C -4,9 C 6,4 km/h
08.01.2017 11:00 -4,6 C 84 % 1028,4 hPa 0,0 l/m 3,2 km/h N -6,9 C -4,6 C 9,6 km/h
08.01.2017 12:00 -4,4 C 84 % 1028,0 hPa 0,0 l/m 3,8 km/h N -6,7 C -4,4 C 10,9 km/h
08.01.2017 13:00 -4,3 C 83 % 1027,8 hPa 0,0 l/m 5,7 km/h N -6,7 C -4,4 C 16,1 km/h
08.01.2017 14:00 -4,3 C 83 % 1027,8 hPa 0,0 l/m 6,5 km/h N -6,7 C -4,7 C 17,7 km/h
08.01.2017 15:00 -4,3 C 83 % 1028,1 hPa 0,0 l/m 6,4 km/h N -6,7 C -4,5 C 18,1 km/h
08.01.2017 16:00 -4,3 C 83 % 1028,5 hPa 0,0 l/m 6,2 km/h N -6,7 C -4,7 C 15,7 km/h
08.01.2017 17:00 -4,0 C 83 % 1028,9 hPa 0,0 l/m 6,0 km/h N -6,5 C -4,0 C 16,5 km/h
08.01.2017 18:00 -3,8 C 82 % 1028,9 hPa 0,0 l/m 6,3 km/h N -6,3 C -3,9 C 17,7 km/h
08.01.2017 19:00 -3,7 C 82 % 1029,0 hPa 0,0 l/m 6,2 km/h N -6,3 C -4,0 C 18,9 km/h
08.01.2017 20:00 -3,5 C 82 % 1029,0 hPa 0,0 l/m 6,8 km/h N -6,2 C -4,0 C 17,7 km/h
08.01.2017 21:00 -3,2 C 80 % 1029,1 hPa 0,0 l/m 6,7 km/h N -6,3 C -3,9 C 18,9 km/h
08.01.2017 22:00 -3,3 C 80 % 1029,2 hPa 0,0 l/m 5,2 km/h N -6,2 C -3,3 C 13,7 km/h
08.01.2017 23:00 -3,6 C 82 % 1028,8 hPa 0,0 l/m 4,3 km/h N -6,3 C -3,6 C 13,7 km/h
Min-Datum _ 07.01.17 04.01.17 04.01.17 - 02.01.17 - 07.01.17 06.01.17 02.01.17
_ Min-Zeit 08:15 03:15 13:00 - 00:00 - 14:15 09:15 00:15
Minimum _ -8,9 C 45 % 1004,4 hPa - 0,0 km/h - -14,4 C -15,3 C 0,0 km/h
Max-Datum _ 04.01.17 02.01.17 06.01.17 02.01.17 04.01.17 - 02.01.17 04.01.17 04.01.17
_ Max-Zeit 12:30 00:00 23:45 00:00 13:30 - 14:30 00:30 13:30
Maximum _ 5,6 C 85 % 1037,2 hPa 0,0 l/m 28,8 km/h
N
- -0,3 C 3,1 C 72,4 km/h
N
Durchschnitt _ -2,4 C 70 % 1023,2 hPa #0,0 l/m 9,1 km/h N -7,3 C -5,6 C 25,9 km/h